Time;durP1;ratioP1;P1;durP2;ratioP2;P2;SDS_P1;SDS_P2;PMS_P1;PMS_P2;Temp;Humidity;BMP_temperature;BMP_pressure;BME280_temperature;BME280_humidity;BME280_pressure;Samples;Min_cycle;Max_cycle;Signal;HPM_P1;HPM_P2
2021/12/12 00:02:12;;;;;;;18.25;11.65;;;5.10;99.90;;;;;;5059981;28;20264;-74
2021/12/12 00:04:59;;;;;;;16.95;10.73;;;5.00;99.90;;;;;;5075438;28;20207;-74
2021/12/12 00:07:45;;;;;;;17.02;10.02;;;5.00;99.90;;;;;;5074851;28;20274;-74
2021/12/12 00:10:34;;;;;;;15.07;10.90;;;5.00;99.90;;;;;;5068071;28;20429;-74
2021/12/12 00:13:24;;;;;;;22.60;10.32;;;4.90;99.90;;;;;;5068206;28;20208;-74
2021/12/12 00:16:10;;;;;;;20.65;11.25;;;4.90;99.90;;;;;;5074920;28;20223;-74
2021/12/12 00:18:57;;;;;;;22.13;10.93;;;5.00;99.90;;;;;;5074567;28;20558;-74
2021/12/12 00:21:46;;;;;;;16.45;11.07;;;5.00;99.90;;;;;;5066041;28;20250;-74
2021/12/12 00:24:32;;;;;;;26.63;9.93;;;5.00;99.90;;;;;;5054638;28;20216;-74
2021/12/12 00:27:19;;;;;;;14.07;9.98;;;5.10;99.90;;;;;;5073622;28;20330;-74
2021/12/12 00:30:08;;;;;;;19.08;10.80;;;5.00;99.90;;;;;;5068898;28;20219;-74
2021/12/12 00:32:54;;;;;;;17.92;9.82;;;5.00;99.90;;;;;;5075307;28;20224;-74
2021/12/12 00:35:41;;;;;;;19.17;10.05;;;5.00;99.90;;;;;;5073461;28;20216;-74
2021/12/12 00:38:29;;;;;;;19.38;9.93;;;5.00;99.90;;;;;;5078968;28;20207;-74
2021/12/12 00:41:20;;;;;;;12.05;9.60;;;5.00;99.90;;;;;;5059633;28;20232;-74
2021/12/12 00:44:07;;;;;;;19.00;9.15;;;5.00;99.90;;;;;;5072416;28;20196;-74
2021/12/12 00:46:56;;;;;;;15.38;10.50;;;4.90;99.90;;;;;;5074715;28;20293;-74
2021/12/12 00:49:43;;;;;;;17.55;10.07;;;4.90;99.90;;;;;;5055153;28;20204;-74
2021/12/12 00:52:29;;;;;;;18.13;10.88;;;4.90;99.90;;;;;;5059445;28;20251;-74
2021/12/12 00:55:16;;;;;;;13.23;8.25;;;5.00;99.90;;;;;;5074012;28;20211;-74
2021/12/12 00:58:02;;;;;;;18.45;7.72;;;5.00;99.90;;;;;;5068957;28;20251;-74
2021/12/12 01:00:54;;;;;;;13.65;7.05;;;5.00;99.90;;;;;;5070750;28;20335;-74
2021/12/12 01:03:44;;;;;;;15.43;6.93;;;4.90;99.90;;;;;;5073843;28;20251;-74
2021/12/12 01:06:30;;;;;;;11.70;6.35;;;4.90;99.90;;;;;;5073799;28;20315;-74
2021/12/12 01:09:20;;;;;;;8.57;4.95;;;4.90;99.90;;;;;;5069060;28;20570;-74
2021/12/12 01:12:15;;;;;;;10.05;6.00;;;5.00;99.90;;;;;;5078465;28;20312;-74
2021/12/12 01:15:09;;;;;;;18.80;5.43;;;5.00;99.90;;;;;;5094194;28;20269;-74
2021/12/12 01:17:58;;;;;;;7.72;4.97;;;4.90;99.90;;;;;;5054096;28;20568;-74
2021/12/12 01:20:51;;;;;;;10.98;4.78;;;4.90;99.90;;;;;;5059489;28;20320;-74
2021/12/12 01:23:40;;;;;;;16.33;5.85;;;4.80;99.90;;;;;;5073295;28;20200;-74
2021/12/12 01:26:28;;;;;;;14.30;4.50;;;4.90;99.90;;;;;;5073813;28;20196;-74
2021/12/12 01:29:14;;;;;;;9.38;4.53;;;4.90;99.90;;;;;;5066370;28;20669;-74
2021/12/12 01:32:03;;;;;;;11.80;4.95;;;4.90;99.90;;;;;;5070787;28;20216;-74
2021/12/12 01:34:51;;;;;;;9.43;4.05;;;4.90;99.90;;;;;;5073603;28;20654;-74
2021/12/12 01:37:40;;;;;;;20.55;3.97;;;4.90;99.90;;;;;;5078946;28;20346;-74
2021/12/12 01:40:26;;;;;;;15.52;4.38;;;4.90;99.90;;;;;;5072257;28;20226;-74
2021/12/12 01:43:21;;;;;;;10.98;5.35;;;4.90;99.90;;;;;;5069733;28;20995;-74
2021/12/12 01:46:12;;;;;;;18.52;4.97;;;4.80;99.90;;;;;;5073171;28;20246;-74
2021/12/12 01:49:07;;;;;;;15.55;5.43;;;4.80;99.90;;;;;;5070278;28;20292;-74
2021/12/12 01:51:56;;;;;;;11.80;3.70;;;4.80;99.90;;;;;;5076413;22;20232;-75
2021/12/12 01:54:49;;;;;;;10.45;4.28;;;4.80;99.90;;;;;;5032646;28;20208;-76
2021/12/12 01:57:38;;;;;;;6.93;4.20;;;4.70;99.90;;;;;;5056596;28;20250;-76
2021/12/12 02:00:28;;;;;;;16.35;4.50;;;4.60;99.90;;;;;;5067903;28;20208;-76
2021/12/12 02:03:16;;;;;;;9.63;4.60;;;4.50;99.90;;;;;;5036578;28;20213;-76
2021/12/12 02:06:06;;;;;;;10.38;4.32;;;4.50;99.90;;;;;;5013922;28;20198;-76
2021/12/12 02:08:54;;;;;;;7.35;3.60;;;4.40;99.90;;;;;;5029268;28;20193;-76
2021/12/12 02:11:43;;;;;;;10.48;4.50;;;4.40;99.90;;;;;;5032570;28;20376;-76
2021/12/12 02:14:32;;;;;;;10.27;4.30;;;4.40;99.90;;;;;;5032441;28;20202;-76
2021/12/12 02:17:25;;;;;;;10.40;4.10;;;4.10;99.90;;;;;;5032382;28;20222;-75
2021/12/12 02:20:21;;;;;;;6.55;3.90;;;4.00;99.90;;;;;;5025095;28;20291;-76
2021/12/12 02:23:16;;;;;;;15.35;4.65;;;3.90;99.90;;;;;;5032386;28;20356;-76
2021/12/12 02:35:21;;;;;;;8.02;3.78;;;3.60;99.90;;;;;;5009579;28;20197;-75
2021/12/12 02:38:08;;;;;;;9.10;3.45;;;3.50;99.90;;;;;;5024608;28;20205;-76
2021/12/12 02:40:56;;;;;;;9.13;3.85;;;3.40;99.90;;;;;;5012470;28;20202;-76
2021/12/12 02:43:47;;;;;;;10.35;4.10;;;3.40;99.90;;;;;;5026506;28;20221;-76
2021/12/12 02:46:36;;;;;;;7.40;3.08;;;3.40;99.90;;;;;;5039776;28;20261;-74
2021/12/12 02:49:37;;;;;;;8.02;3.40;;;3.30;99.90;;;;;;5038288;28;20209;-74
2021/12/12 02:52:26;;;;;;;7.68;2.95;;;3.30;99.90;;;;;;5033828;28;20229;-74
2021/12/12 02:55:16;;;;;;;7.65;3.88;;;3.20;99.90;;;;;;5044708;28;20209;-74
2021/12/12 02:58:06;;;;;;;7.95;3.45;;;3.10;99.90;;;;;;5029528;28;20347;-74
2021/12/12 03:00:58;;;;;;;12.30;4.10;;;2.90;99.90;;;;;;5039577;28;20205;-74
2021/12/12 03:03:45;;;;;;;6.05;3.80;;;2.90;99.90;;;;;;5043416;28;20276;-74
2021/12/12 03:06:33;;;;;;;7.63;3.20;;;2.90;99.90;;;;;;5050300;28;20192;-73
2021/12/12 03:09:22;;;;;;;9.25;4.25;;;2.90;99.90;;;;;;5029775;28;20205;-74
2021/12/12 03:12:12;;;;;;;4.90;3.10;;;2.90;99.90;;;;;;5031662;28;20584;-74
2021/12/12 03:15:02;;;;;;;10.10;3.70;;;3.00;99.90;;;;;;5017618;28;20737;-74
2021/12/12 03:17:50;;;;;;;15.15;3.40;;;3.00;99.90;;;;;;5014178;28;20230;-74
2021/12/12 03:20:39;;;;;;;8.25;3.85;;;2.90;99.90;;;;;;5021835;28;20201;-74
2021/12/12 03:23:28;;;;;;;6.88;3.95;;;2.80;99.90;;;;;;5031584;28;20333;-74
2021/12/12 03:26:15;;;;;;;7.63;3.00;;;2.90;99.90;;;;;;5030117;28;20206;-74
2021/12/12 03:29:03;;;;;;;6.35;3.55;;;2.90;99.90;;;;;;5032638;28;20210;-74
2021/12/12 03:31:52;;;;;;;6.93;3.58;;;2.80;99.90;;;;;;5031605;28;20272;-74
2021/12/12 03:34:40;;;;;;;6.60;4.05;;;2.90;99.90;;;;;;5031513;28;20692;-74
2021/12/12 03:37:30;;;;;;;16.08;3.63;;;2.80;99.90;;;;;;5021087;28;20249;-74
2021/12/12 03:40:28;;;;;;;7.22;3.85;;;2.80;99.90;;;;;;5011990;28;20280;-75
2021/12/12 03:43:15;;;;;;;11.98;3.55;;;2.70;99.90;;;;;;5034133;28;20764;-75
2021/12/12 03:46:06;;;;;;;9.27;3.60;;;2.80;99.90;;;;;;5047080;28;20247;-74
2021/12/12 03:48:53;;;;;;;11.15;3.25;;;2.70;99.90;;;;;;5014399;28;20690;-74
2021/12/12 03:51:42;;;;;;;9.88;3.33;;;2.80;99.90;;;;;;5030902;28;20271;-74
2021/12/12 03:54:27;;;;;;;5.97;3.70;;;2.80;99.90;;;;;;5031168;28;20571;-74
2021/12/12 03:57:13;;;;;;;5.82;3.15;;;2.80;99.90;;;;;;5035202;28;20307;-74
2021/12/12 04:00:00;;;;;;;5.65;3.53;;;2.70;99.90;;;;;;5025455;28;20225;-74
2021/12/12 04:02:47;;;;;;;15.63;3.90;;;2.70;99.90;;;;;;5038358;28;20251;-74
2021/12/12 04:05:33;;;;;;;7.05;2.88;;;2.70;99.90;;;;;;5035937;28;20203;-74
2021/12/12 04:08:19;;;;;;;9.02;3.70;;;2.70;99.90;;;;;;5036813;28;20300;-74
2021/12/12 04:11:12;;;;;;;5.15;3.90;;;2.80;99.90;;;;;;5045437;28;20200;-74
2021/12/12 04:13:58;;;;;;;9.05;2.90;;;2.80;99.90;;;;;;5032254;28;20256;-74
2021/12/12 04:16:46;;;;;;;12.93;3.35;;;2.70;99.90;;;;;;5028701;28;20229;-74
2021/12/12 04:19:34;;;;;;;9.68;3.40;;;2.80;99.90;;;;;;5011701;28;20242;-74
2021/12/12 04:22:20;;;;;;;8.95;2.72;;;2.70;99.90;;;;;;5014476;28;20292;-74
2021/12/12 04:25:06;;;;;;;4.65;3.30;;;2.70;99.90;;;;;;5034989;28;20208;-74
2021/12/12 04:27:53;;;;;;;8.85;3.50;;;2.80;99.90;;;;;;5041467;28;20200;-75
2021/12/12 04:30:39;;;;;;;10.20;3.42;;;2.80;99.90;;;;;;5036943;28;20275;-74
2021/12/12 04:33:26;;;;;;;4.63;2.85;;;2.90;99.90;;;;;;5034307;28;20569;-74
2021/12/12 04:36:13;;;;;;;5.20;3.40;;;3.00;99.90;;;;;;5026273;28;20214;-74
2021/12/12 04:39:01;;;;;;;6.82;3.30;;;3.00;99.90;;;;;;5030128;28;20686;-74
2021/12/12 04:41:50;;;;;;;8.27;2.90;;;2.90;99.90;;;;;;5034424;28;20221;-74
2021/12/12 04:44:38;;;;;;;5.55;2.80;;;2.90;99.90;;;;;;5034049;28;20228;-76
2021/12/12 04:50:45;;;;;;;6.97;3.47;;;2.90;99.90;;;;;;5034615;28;20217;-76
2021/12/12 04:53:37;;;;;;;7.00;3.30;;;3.00;99.90;;;;;;5033601;28;20233;-75
2021/12/12 04:56:28;;;;;;;8.75;4.15;;;3.00;99.90;;;;;;5027313;28;20687;-75
2021/12/12 04:59:20;;;;;;;8.30;3.72;;;3.00;99.90;;;;;;5034329;28;20578;-76
2021/12/12 05:02:09;;;;;;;7.45;4.00;;;3.10;99.90;;;;;;5052144;28;20707;-76
2021/12/12 05:05:00;;;;;;;9.15;4.18;;;3.10;99.90;;;;;;5022732;28;20775;-76
2021/12/12 05:07:52;;;;;;;10.63;4.13;;;3.30;99.90;;;;;;5014497;28;20226;-76
2021/12/12 05:10:43;;;;;;;9.88;4.55;;;3.40;99.90;;;;;;5028091;28;20268;-75
2021/12/12 05:13:35;;;;;;;17.45;5.05;;;3.50;99.90;;;;;;5044585;28;20298;-75
2021/12/12 05:16:27;;;;;;;9.70;4.80;;;3.60;99.90;;;;;;5034089;28;20221;-76
2021/12/12 05:19:19;;;;;;;12.65;5.20;;;3.70;99.90;;;;;;5034031;28;20686;-75
2021/12/12 05:22:09;;;;;;;5.75;3.17;;;3.70;99.90;;;;;;5033396;28;20217;-76
2021/12/12 05:24:59;;;;;;;14.90;5.07;;;3.80;99.90;;;;;;5029087;28;20284;-76
2021/12/12 05:27:48;;;;;;;11.25;5.97;;;3.80;99.90;;;;;;5038917;28;20335;-76
2021/12/12 05:30:36;;;;;;;11.45;5.57;;;3.90;99.90;;;;;;5037037;28;20202;-76
2021/12/12 05:33:22;;;;;;;15.90;5.65;;;3.90;99.90;;;;;;5033183;28;20221;-76
2021/12/12 05:36:08;;;;;;;8.35;5.20;;;3.90;99.90;;;;;;5015106;28;20208;-75
2021/12/12 05:38:57;;;;;;;8.05;5.57;;;3.90;99.90;;;;;;5018124;28;20222;-76
2021/12/12 05:41:43;;;;;;;10.00;5.05;;;4.00;99.90;;;;;;5033790;28;20252;-76
2021/12/12 05:44:31;;;;;;;7.72;5.32;;;4.10;99.90;;;;;;5027498;28;20240;-75
2021/12/12 05:47:18;;;;;;;9.00;4.97;;;4.20;99.90;;;;;;5013843;28;20203;-76
2021/12/12 05:50:07;;;;;;;12.07;5.30;;;4.20;99.90;;;;;;5013443;28;20201;-76
2021/12/12 05:52:54;;;;;;;10.98;5.60;;;4.30;99.90;;;;;;5017147;28;20221;-76
2021/12/12 05:55:41;;;;;;;11.02;6.20;;;4.20;99.90;;;;;;5019190;28;20233;-76
2021/12/12 05:58:27;;;;;;;10.10;5.07;;;4.30;99.90;;;;;;5037517;28;20234;-75
2021/12/12 06:01:15;;;;;;;14.95;6.18;;;4.30;99.90;;;;;;5053174;28;20205;-76
2021/12/12 06:04:01;;;;;;;10.77;5.80;;;4.30;99.90;;;;;;5030250;28;20197;-76
2021/12/12 06:06:48;;;;;;;9.90;5.57;;;4.30;99.90;;;;;;5032461;28;20198;-75
2021/12/12 06:09:34;;;;;;;9.02;6.35;;;4.30;99.90;;;;;;5013552;28;20194;-76
2021/12/12 06:12:21;;;;;;;10.38;6.57;;;4.30;99.90;;;;;;5018679;28;20620;-76
2021/12/12 06:15:09;;;;;;;14.23;6.05;;;4.30;99.90;;;;;;5027147;28;20275;-75
2021/12/12 06:17:57;;;;;;;13.32;6.47;;;4.30;99.90;;;;;;5036811;28;20229;-76
2021/12/12 06:20:44;;;;;;;11.63;7.13;;;4.30;99.90;;;;;;5042355;28;20587;-75
2021/12/12 06:23:30;;;;;;;13.02;7.25;;;4.30;99.90;;;;;;5040192;28;20366;-75
2021/12/12 06:26:18;;;;;;;10.68;7.05;;;4.30;99.90;;;;;;5027643;28;20205;-76
2021/12/12 06:29:05;;;;;;;16.45;7.03;;;4.30;99.90;;;;;;5034023;28;20198;-76
2021/12/12 06:31:53;;;;;;;13.88;6.47;;;4.30;99.90;;;;;;5032359;28;20327;-76
2021/12/12 06:34:40;;;;;;;11.93;7.63;;;4.30;99.90;;;;;;5020885;28;20224;-75
2021/12/12 06:37:27;;;;;;;11.02;7.57;;;4.30;99.90;;;;;;5032297;28;20721;-75
2021/12/12 06:40:16;;;;;;;18.65;9.60;;;4.40;99.90;;;;;;5032257;28;20615;-76
2021/12/12 06:43:05;;;;;;;12.30;7.80;;;4.40;99.90;;;;;;5028205;28;20210;-76
2021/12/12 06:45:52;;;;;;;15.10;8.30;;;4.40;99.90;;;;;;5012584;28;20333;-76
2021/12/12 06:48:38;;;;;;;17.27;8.00;;;4.40;99.90;;;;;;5022517;28;20670;-76
2021/12/12 06:51:27;;;;;;;19.15;9.35;;;4.40;99.90;;;;;;5032100;28;20196;-76
2021/12/12 06:54:16;;;;;;;15.15;8.07;;;4.30;99.90;;;;;;5020483;28;20209;-76
2021/12/12 06:57:04;;;;;;;17.17;7.50;;;4.30;99.90;;;;;;5027570;28;20567;-75
2021/12/12 06:59:51;;;;;;;13.60;8.38;;;4.30;99.90;;;;;;5043549;28;20698;-76
2021/12/12 07:02:37;;;;;;;12.27;8.57;;;4.30;99.90;;;;;;5048483;28;20229;-75
2021/12/12 07:05:25;;;;;;;16.17;9.05;;;4.30;99.90;;;;;;5031618;28;20629;-75
2021/12/12 07:08:12;;;;;;;15.07;7.43;;;4.20;99.90;;;;;;5031872;28;20198;-76
2021/12/12 07:10:58;;;;;;;11.90;8.20;;;4.10;99.90;;;;;;5031849;28;20210;-76
2021/12/12 07:13:45;;;;;;;19.33;8.60;;;4.20;99.90;;;;;;5021372;28;20206;-75
2021/12/12 07:16:31;;;;;;;13.55;8.95;;;4.20;99.90;;;;;;5022121;28;20670;-76
2021/12/12 07:19:18;;;;;;;12.70;8.82;;;4.10;99.90;;;;;;5030247;28;20414;-76
2021/12/12 07:22:05;;;;;;;15.88;9.32;;;4.10;99.90;;;;;;5030134;28;20225;-76
2021/12/12 07:24:52;;;;;;;12.73;8.85;;;4.10;99.90;;;;;;5036586;28;20197;-76
2021/12/12 07:27:38;;;;;;;17.67;8.70;;;4.20;99.90;;;;;;5043118;28;20210;-76
2021/12/12 07:30:24;;;;;;;22.38;10.40;;;4.30;99.90;;;;;;5040808;28;20206;-76
2021/12/12 07:33:11;;;;;;;15.43;9.63;;;4.30;99.90;;;;;;5023392;28;20358;-76
2021/12/12 07:35:59;;;;;;;32.15;13.60;;;4.40;99.90;;;;;;5012288;28;20202;-76
2021/12/12 07:38:47;;;;;;;20.50;11.63;;;4.40;99.90;;;;;;5011889;28;20281;-76
2021/12/12 07:41:35;;;;;;;14.77;9.93;;;4.50;99.90;;;;;;5016353;28;20201;-76
2021/12/12 07:44:23;;;;;;;17.00;10.18;;;4.40;99.90;;;;;;5030655;28;20726;-76
2021/12/12 07:47:10;;;;;;;14.48;8.10;;;4.40;99.90;;;;;;5031292;28;20272;-76
2021/12/12 07:49:56;;;;;;;20.15;8.30;;;4.40;99.90;;;;;;5031591;28;20280;-76
2021/12/12 07:52:43;;;;;;;13.38;7.75;;;4.30;99.90;;;;;;5065188;23;20235;-76
2021/12/12 07:55:28;;;;;;;16.85;7.88;;;4.40;99.90;;;;;;5070758;28;20274;-75
2021/12/12 07:58:17;;;;;;;15.40;8.40;;;4.30;99.90;;;;;;5066755;28;20582;-75
2021/12/12 08:01:07;;;;;;;15.82;9.70;;;4.30;99.90;;;;;;5074913;28;20219;-76
2021/12/12 08:03:54;;;;;;;10.95;7.53;;;4.30;99.90;;;;;;5038320;28;20229;-75
2021/12/12 08:06:40;;;;;;;15.77;8.23;;;4.30;99.90;;;;;;5051732;28;20204;-75
2021/12/12 08:09:26;;;;;;;14.38;7.65;;;4.40;99.90;;;;;;5035219;28;20201;-76
2021/12/12 08:12:13;;;;;;;17.38;8.27;;;4.40;99.90;;;;;;5048664;28;20225;-75
2021/12/12 08:15:04;;;;;;;12.27;8.35;;;4.40;99.90;;;;;;5039124;28;20200;-75
2021/12/12 08:17:50;;;;;;;14.10;7.75;;;4.40;99.90;;;;;;5055252;28;20217;-75
2021/12/12 08:20:37;;;;;;;14.15;7.78;;;4.40;99.90;;;;;;5045045;28;20208;-75
2021/12/12 08:23:24;;;;;;;17.20;7.03;;;4.40;99.90;;;;;;5048163;28;20224;-76
2021/12/12 08:26:10;;;;;;;13.65;6.68;;;4.40;99.90;;;;;;5056506;28;20208;-75
2021/12/12 08:28:56;;;;;;;9.93;7.22;;;4.40;99.90;;;;;;5046537;28;20343;-75
2021/12/12 08:31:46;;;;;;;14.13;6.30;;;4.40;99.90;;;;;;5060089;28;20685;-76
2021/12/12 08:34:31;;;;;;;14.55;7.70;;;4.50;99.90;;;;;;5041526;28;20201;-76
2021/12/12 08:37:19;;;;;;;12.38;6.70;;;4.50;99.90;;;;;;5034676;28;20312;-75
2021/12/12 08:40:06;;;;;;;17.63;7.28;;;4.50;99.90;;;;;;5052412;28;20201;-75
2021/12/12 08:42:55;;;;;;;9.57;6.82;;;4.60;99.90;;;;;;5044506;28;20220;-75
2021/12/12 08:45:43;;;;;;;9.82;6.20;;;4.70;99.90;;;;;;5054449;28;20681;-76
2021/12/12 08:48:34;;;;;;;14.05;6.45;;;4.70;99.90;;;;;;5046005;28;20248;-75
2021/12/12 08:51:29;;;;;;;12.25;6.90;;;4.60;99.90;;;;;;5049204;28;20281;-75
2021/12/12 08:54:23;;;;;;;11.65;6.82;;;4.70;99.90;;;;;;5039840;28;20212;-75
2021/12/12 08:57:20;;;;;;;8.88;5.82;;;4.70;99.90;;;;;;5060693;28;20223;-75
2021/12/12 09:00:10;;;;;;;9.50;6.25;;;4.70;99.90;;;;;;5061040;28;20208;-75
2021/12/12 09:02:56;;;;;;;11.32;6.22;;;4.70;99.90;;;;;;5051085;28;20292;-76
2021/12/12 09:05:44;;;;;;;12.18;5.78;;;4.80;99.90;;;;;;5043514;28;20798;-76
2021/12/12 09:08:36;;;;;;;10.02;5.55;;;4.80;99.90;;;;;;5034764;28;20568;-75
2021/12/12 09:11:28;;;;;;;10.63;6.15;;;4.80;99.90;;;;;;5040862;28;20556;-76
2021/12/12 09:14:19;;;;;;;13.30;6.03;;;4.80;99.90;;;;;;5033796;28;20197;-75
2021/12/12 09:17:09;;;;;;;9.68;5.80;;;4.80;99.90;;;;;;5034094;28;20193;-75
2021/12/12 09:19:57;;;;;;;13.50;7.07;;;4.90;99.90;;;;;;5036362;28;20213;-75
2021/12/12 09:22:56;;;;;;;8.45;5.50;;;4.90;99.90;;;;;;5036522;28;20249;-75
2021/12/12 09:25:50;;;;;;;12.13;6.10;;;5.00;99.90;;;;;;5033709;28;20206;-75
2021/12/12 09:28:40;;;;;;;10.63;6.10;;;5.10;99.90;;;;;;5062331;28;20251;-76
2021/12/12 09:31:29;;;;;;;8.82;5.05;;;5.00;99.90;;;;;;5050659;28;20201;-76
2021/12/12 09:34:21;;;;;;;7.38;4.93;;;5.10;99.90;;;;;;5047676;28;20319;-76
2021/12/12 09:37:11;;;;;;;9.40;5.35;;;5.20;99.90;;;;;;5055911;28;20196;-75
2021/12/12 09:40:03;;;;;;;10.88;5.45;;;5.30;99.90;;;;;;5050241;28;20224;-75
2021/12/12 09:43:05;;;;;;;9.95;5.85;;;5.40;99.90;;;;;;5047108;28;20317;-76
2021/12/12 09:46:19;;;;;;;8.95;5.45;;;5.30;99.90;;;;;;5033533;28;20259;-75
2021/12/12 09:53:12;;;;;;;11.18;5.80;;;5.20;99.90;;;;;;4971983;28;20303;-75
2021/12/12 09:56:06;;;;;;;13.13;6.35;;;5.20;99.90;;;;;;5041377;28;20556;-76
2021/12/12 09:59:02;;;;;;;8.57;5.25;;;5.30;99.90;;;;;;5064056;28;20213;-76
2021/12/12 10:01:54;;;;;;;8.65;5.60;;;5.30;99.90;;;;;;5043368;28;20200;-76
2021/12/12 10:04:53;;;;;;;11.02;5.82;;;5.30;99.90;;;;;;5032867;28;20201;-75
2021/12/12 10:07:50;;;;;;;11.88;5.75;;;5.20;99.90;;;;;;5046037;28;20197;-75
2021/12/12 10:10:48;;;;;;;9.20;6.40;;;5.10;99.90;;;;;;5043177;28;20268;-75
2021/12/12 10:13:42;;;;;;;7.90;6.30;;;5.20;99.90;;;;;;5033178;28;20221;-75
2021/12/12 10:16:36;;;;;;;9.30;5.72;;;5.20;99.90;;;;;;5035453;28;20205;-75
2021/12/12 10:19:31;;;;;;;9.93;4.97;;;5.20;99.90;;;;;;5041707;28;20311;-75
2021/12/12 10:22:29;;;;;;;9.10;5.50;;;5.20;99.90;;;;;;5032456;28;20276;-75
2021/12/12 10:25:22;;;;;;;10.05;5.72;;;5.30;99.90;;;;;;5033232;28;20217;-75
2021/12/12 10:28:20;;;;;;;11.45;6.00;;;5.40;99.90;;;;;;5055091;28;20197;-75
2021/12/12 10:31:14;;;;;;;9.25;5.32;;;5.40;99.90;;;;;;5040783;28;20324;-75
2021/12/12 10:34:05;;;;;;;11.13;5.80;;;5.40;99.90;;;;;;5050660;28;20580;-75
2021/12/12 10:36:59;;;;;;;9.15;5.93;;;5.40;99.90;;;;;;5053320;28;20205;-76
2021/12/12 10:39:50;;;;;;;9.38;5.35;;;5.40;99.90;;;;;;5042252;28;20237;-75
2021/12/12 10:42:43;;;;;;;8.77;5.45;;;5.50;99.90;;;;;;5048850;28;20728;-75
2021/12/12 10:45:39;;;;;;;7.50;4.50;;;5.50;99.90;;;;;;5058003;28;20200;-75
2021/12/12 10:48:33;;;;;;;7.22;5.07;;;5.40;99.90;;;;;;5058373;28;20682;-76
2021/12/12 10:51:23;;;;;;;8.13;6.00;;;5.40;99.90;;;;;;5048493;28;20251;-76
2021/12/12 10:54:13;;;;;;;11.43;5.97;;;5.50;99.90;;;;;;5065989;28;20236;-75
2021/12/12 10:57:04;;;;;;;15.73;5.50;;;5.50;99.90;;;;;;5069396;28;20323;-75
2021/12/12 10:59:56;;;;;;;6.45;5.05;;;5.50;99.90;;;;;;5042074;28;20585;-75
2021/12/12 11:02:50;;;;;;;7.45;5.05;;;5.50;99.90;;;;;;5049779;28;20213;-76
2021/12/12 11:05:41;;;;;;;6.93;4.55;;;5.50;99.90;;;;;;5051957;28;20711;-75
2021/12/12 11:08:36;;;;;;;6.50;4.22;;;5.40;99.90;;;;;;5037052;28;20200;-75
2021/12/12 11:11:25;;;;;;;8.80;5.30;;;5.40;99.90;;;;;;5036608;28;20309;-76
2021/12/12 11:14:17;;;;;;;9.80;5.45;;;5.40;99.90;;;;;;5051471;28;20204;-75
2021/12/12 11:17:09;;;;;;;7.90;4.80;;;5.40;99.90;;;;;;5041404;28;20197;-75
2021/12/12 11:20:01;;;;;;;6.47;5.00;;;5.50;99.90;;;;;;5032957;28;20221;-74
2021/12/12 11:22:51;;;;;;;10.35;5.05;;;5.60;99.90;;;;;;5031607;28;20875;-75
2021/12/12 11:25:40;;;;;;;8.85;5.03;;;5.60;99.90;;;;;;5032899;28;20205;-74
2021/12/12 11:28:31;;;;;;;9.55;4.45;;;5.70;99.90;;;;;;5048079;28;20252;-76
2021/12/12 11:31:20;;;;;;;9.30;4.00;;;5.80;99.90;;;;;;5031664;28;20572;-75
2021/12/12 11:34:08;;;;;;;10.32;4.68;;;5.90;99.90;;;;;;5042620;28;20229;-76
2021/12/12 11:37:08;;;;;;;14.65;3.95;;;5.80;99.90;;;;;;5050008;28;20588;-76
2021/12/12 11:40:05;;;;;;;11.20;4.75;;;5.80;99.90;;;;;;5054835;28;20304;-76
2021/12/12 11:42:57;;;;;;;9.27;5.18;;;5.70;99.90;;;;;;5052118;28;20219;-76
2021/12/12 11:45:45;;;;;;;8.20;4.28;;;5.70;99.90;;;;;;5051456;28;20448;-76
2021/12/12 11:48:41;;;;;;;7.50;3.50;;;5.70;99.90;;;;;;5048115;28;20204;-76
2021/12/12 11:51:34;;;;;;;10.02;4.80;;;5.80;99.90;;;;;;5058482;28;20665;-75
2021/12/12 11:54:33;;;;;;;10.55;4.30;;;5.90;99.90;;;;;;5054972;28;20205;-76
2021/12/12 11:57:25;;;;;;;7.30;3.83;;;5.90;99.90;;;;;;5055926;28;20200;-75
2021/12/12 12:00:17;;;;;;;9.90;4.00;;;5.80;99.90;;;;;;5066746;28;20228;-78
2021/12/12 12:03:23;;;;;;;5.53;3.40;;;5.90;99.90;;;;;;5046394;28;20336;-77
2021/12/12 12:06:22;;;;;;;8.50;3.53;;;5.90;99.90;;;;;;5059085;28;20204;-77
2021/12/12 12:09:33;;;;;;;8.43;4.05;;;5.90;99.90;;;;;;5049929;28;20279;-76
2021/12/12 12:12:41;;;;;;;8.55;3.92;;;5.90;99.90;;;;;;5044000;28;20698;-77
2021/12/12 12:15:40;;;;;;;7.57;3.50;;;5.90;99.90;;;;;;5044049;28;20202;-76
2021/12/12 12:18:38;;;;;;;10.27;3.80;;;5.90;99.90;;;;;;5039241;28;20263;-77
2021/12/12 12:21:30;;;;;;;12.95;3.60;;;6.00;99.90;;;;;;5047974;28;20275;-75
2021/12/12 12:24:26;;;;;;;12.48;3.58;;;6.00;99.90;;;;;;5057828;28;20216;-76
2021/12/12 12:27:14;;;;;;;8.85;3.53;;;6.00;99.90;;;;;;5056364;28;20216;-75
2021/12/12 12:30:29;;;;;;;9.10;3.65;;;6.00;99.90;;;;;;5063103;28;20220;-75
2021/12/12 12:33:57;;;;;;;11.07;4.22;;;6.10;99.90;;;;;;5051980;28;20224;-75
2021/12/12 12:37:43;;;;;;;5.18;3.10;;;6.00;99.90;;;;;;5039685;28;20348;-75
2021/12/12 12:41:05;;;;;;;13.65;3.25;;;6.00;99.90;;;;;;4975912;28;20239;-74
2021/12/12 12:44:29;;;;;;;9.40;3.90;;;5.90;99.90;;;;;;4977614;28;20352;-75
2021/12/12 12:47:47;;;;;;;6.63;3.25;;;5.80;99.90;;;;;;4979945;28;20208;-77
2021/12/12 12:50:51;;;;;;;7.18;3.47;;;5.80;99.90;;;;;;5065382;28;20193;-77
2021/12/12 12:54:11;;;;;;;6.78;3.53;;;5.80;99.90;;;;;;5057278;28;20235;-77
2021/12/12 12:57:24;;;;;;;5.63;3.88;;;5.80;99.90;;;;;;5058809;28;20204;-77
2021/12/12 13:00:14;;;;;;;9.27;3.65;;;5.90;99.90;;;;;;5066092;28;20351;-76
2021/12/12 13:03:20;;;;;;;7.50;3.47;;;6.00;99.90;;;;;;5062684;28;20220;-77
2021/12/12 13:06:54;;;;;;;8.32;2.95;;;5.90;99.90;;;;;;5051074;28;20300;-77
2021/12/12 13:09:51;;;;;;;9.82;3.20;;;5.90;99.90;;;;;;5051167;28;20193;-78
2021/12/12 13:13:02;;;;;;;6.57;3.15;;;5.90;99.90;;;;;;5059373;28;20590;-77
2021/12/12 13:15:55;;;;;;;8.50;3.10;;;5.90;99.90;;;;;;5058119;28;20209;-78
2021/12/12 13:18:50;;;;;;;5.95;2.60;;;6.00;99.90;;;;;;5039806;28;20288;-78
2021/12/12 13:21:51;;;;;;;9.15;3.15;;;6.10;99.90;;;;;;5052310;28;20209;-76
2021/12/12 13:24:47;;;;;;;8.43;2.65;;;6.00;99.90;;;;;;5055848;28;20215;-77
2021/12/12 13:28:01;;;;;;;10.13;3.25;;;6.10;99.90;;;;;;5058371;28;20208;-78
2021/12/12 13:30:59;;;;;;;6.30;2.70;;;6.10;99.90;;;;;;5053636;28;20193;-77
2021/12/12 13:33:56;;;;;;;5.40;3.58;;;6.20;99.90;;;;;;5053501;28;20283;-78
2021/12/12 13:36:51;;;;;;;6.90;3.78;;;6.20;99.90;;;;;;5050213;28;20253;-77
2021/12/12 13:39:58;;;;;;;38.65;5.03;;;6.20;99.90;;;;;;5057641;28;20228;-76
2021/12/12 13:42:47;;;;;;;15.27;3.10;;;6.20;99.90;;;;;;5050293;28;20283;-77
2021/12/12 13:45:36;;;;;;;7.38;2.90;;;6.20;99.90;;;;;;5052481;28;20205;-77
2021/12/12 13:48:33;;;;;;;7.28;3.03;;;6.20;99.90;;;;;;5055386;28;20279;-77
2021/12/12 13:51:24;;;;;;;5.88;2.88;;;6.20;99.90;;;;;;5055390;28;20189;-77
2021/12/12 13:54:23;;;;;;;12.77;3.13;;;6.30;99.90;;;;;;5076308;22;20232;-77
2021/12/12 13:57:18;;;;;;;6.35;3.55;;;6.30;99.90;;;;;;5069696;28;20208;-77
2021/12/12 14:00:10;;;;;;;10.18;4.53;;;6.30;99.90;;;;;;5073461;28;20203;-77
2021/12/12 14:03:02;;;;;;;9.75;3.65;;;6.40;99.90;;;;;;5063005;28;20340;-77
2021/12/12 14:05:52;;;;;;;8.80;2.78;;;6.40;99.90;;;;;;5053458;28;20205;-77
2021/12/12 14:08:44;;;;;;;8.23;3.58;;;6.40;99.90;;;;;;5048752;28;20272;-78
2021/12/12 14:11:35;;;;;;;6.07;2.85;;;6.40;99.90;;;;;;5055216;28;20196;-77
2021/12/12 14:14:24;;;;;;;7.35;2.95;;;6.40;99.90;;;;;;5046329;28;20341;-77
2021/12/12 14:17:24;;;;;;;5.68;2.40;;;6.40;99.90;;;;;;5053882;28;20206;-77
2021/12/12 14:20:14;;;;;;;4.63;2.65;;;6.40;99.90;;;;;;5065339;28;20221;-77
2021/12/12 14:23:01;;;;;;;14.05;3.83;;;6.40;99.90;;;;;;5035735;28;20216;-78
2021/12/12 14:25:52;;;;;;;12.13;3.58;;;6.40;99.90;;;;;;5048845;28;20253;-77
2021/12/12 14:28:44;;;;;;;7.63;3.88;;;6.40;99.90;;;;;;5051124;28;20204;-77
2021/12/12 14:31:32;;;;;;;6.60;3.50;;;6.30;99.90;;;;;;5055231;28;20589;-77
2021/12/12 14:34:24;;;;;;;7.40;3.40;;;6.30;99.90;;;;;;5051898;28;20221;-78
2021/12/12 14:37:15;;;;;;;5.47;2.95;;;6.30;99.90;;;;;;5053707;28;20269;-76
2021/12/12 14:40:04;;;;;;;9.18;3.63;;;6.30;99.90;;;;;;5053771;28;20216;-77
2021/12/12 14:42:53;;;;;;;10.55;4.32;;;6.30;99.90;;;;;;5052491;28;20232;-78
2021/12/12 14:45:45;;;;;;;12.45;4.32;;;6.20;99.90;;;;;;5051461;28;20654;-78
2021/12/12 14:48:35;;;;;;;9.07;3.58;;;6.20;99.90;;;;;;5055624;28;20201;-77
2021/12/12 14:51:25;;;;;;;6.22;3.60;;;6.20;99.90;;;;;;5056868;28;20193;-78
2021/12/12 14:54:13;;;;;;;5.20;3.17;;;6.20;99.90;;;;;;5051663;28;20236;-77
2021/12/12 14:57:01;;;;;;;8.02;2.85;;;6.10;99.90;;;;;;5054943;28;20208;-77
2021/12/12 14:59:55;;;;;;;8.55;3.10;;;6.10;99.90;;;;;;5052314;28;20224;-77
2021/12/12 15:02:49;;;;;;;5.22;3.45;;;6.20;99.90;;;;;;5050059;28;20693;-75
2021/12/12 15:05:38;;;;;;;7.90;3.75;;;6.30;99.90;;;;;;5045810;28;20216;-76
2021/12/12 15:08:29;;;;;;;6.93;4.25;;;6.30;99.90;;;;;;5047976;28;20205;-75
2021/12/12 15:11:18;;;;;;;6.93;3.72;;;6.30;99.90;;;;;;5050636;28;20476;-78
2021/12/12 15:14:11;;;;;;;8.20;3.42;;;6.30;99.90;;;;;;5046862;28;20611;-76